Time;durP1;ratioP1;P1;durP2;ratioP2;P2;SDS_P1;SDS_P2;PMS_P1;PMS_P2;Temp;Humidity;BMP_temperature;BMP_pressure;BME280_temperature;BME280_humidity;BME280_pressure;Samples;Min_cycle;Max_cycle;Signal;HPM_P1;HPM_P2
2022/03/10 00:02:02;;;;;;;20.25;9.57;;;2.90;71.50;;;;;;5042319;28;20057;-71
2022/03/10 00:04:28;;;;;;;19.23;9.68;;;2.90;71.50;;;;;;5040157;28;20345;-71
2022/03/10 00:06:54;;;;;;;18.45;8.45;;;2.80;71.80;;;;;;5046758;28;20033;-71
2022/03/10 00:09:19;;;;;;;16.90;8.73;;;2.80;71.70;;;;;;5039031;28;20029;-71
2022/03/10 00:11:47;;;;;;;18.77;9.37;;;2.80;71.90;;;;;;5038831;28;20127;-71
2022/03/10 00:14:13;;;;;;;15.18;8.65;;;2.80;72.10;;;;;;5046324;28;20513;-71
2022/03/10 00:16:39;;;;;;;19.13;9.32;;;2.80;72.30;;;;;;5039037;28;20051;-72
2022/03/10 00:20:03;;;;;;;18.77;8.30;;;2.80;72.40;;;;;;5106134;22;20051;-85
2022/03/10 00:29:49;;;;;;;17.23;8.45;;;2.70;72.80;;;;;;5110484;22;20131;-70
2022/03/10 00:32:30;;;;;;;19.13;9.82;;;2.60;73.00;;;;;;4921911;28;20060;-70
2022/03/10 00:34:56;;;;;;;16.20;7.95;;;2.60;73.00;;;;;;5030305;28;20179;-71
2022/03/10 00:37:21;;;;;;;14.20;7.53;;;2.60;73.10;;;;;;5040407;28;20043;-71
2022/03/10 00:39:48;;;;;;;15.43;7.47;;;2.60;73.00;;;;;;5032791;28;20040;-71
2022/03/10 00:42:13;;;;;;;16.05;8.82;;;2.60;73.20;;;;;;5045389;28;20536;-71
2022/03/10 00:44:39;;;;;;;19.97;8.73;;;2.60;73.40;;;;;;5057775;28;20127;-71
2022/03/10 00:47:04;;;;;;;21.70;8.87;;;2.60;73.10;;;;;;5053458;28;20032;-70
2022/03/10 00:49:30;;;;;;;17.70;8.63;;;2.50;73.30;;;;;;5054272;28;20290;-71
2022/03/10 00:51:55;;;;;;;17.10;8.90;;;2.60;73.30;;;;;;5030565;28;20056;-71
2022/03/10 00:54:26;;;;;;;20.77;8.47;;;2.50;73.30;;;;;;5033813;28;20135;-71
2022/03/10 00:56:52;;;;;;;21.73;8.25;;;2.50;73.20;;;;;;5046641;28;20045;-71
2022/03/10 00:59:17;;;;;;;18.73;9.00;;;2.50;73.50;;;;;;5045623;28;20056;-71
2022/03/10 01:01:43;;;;;;;17.57;8.67;;;2.50;73.50;;;;;;5050345;28;20041;-71
2022/03/10 01:04:08;;;;;;;19.10;8.00;;;2.40;73.70;;;;;;5043417;28;20297;-70
2022/03/10 01:06:34;;;;;;;18.53;8.47;;;2.40;73.90;;;;;;5015917;28;20513;-71
2022/03/10 01:08:59;;;;;;;16.83;8.70;;;2.40;74.20;;;;;;5048188;28;20036;-71
2022/03/10 01:11:25;;;;;;;17.13;8.70;;;2.40;74.20;;;;;;5018296;28;20044;-71
2022/03/10 01:13:51;;;;;;;14.47;8.00;;;2.30;74.10;;;;;;5056873;28;20357;-70
2022/03/10 01:16:16;;;;;;;13.83;7.93;;;2.30;74.20;;;;;;5051633;28;20109;-71
2022/03/10 01:18:42;;;;;;;15.07;8.87;;;2.30;74.20;;;;;;5034233;28;20299;-71
2022/03/10 01:21:07;;;;;;;16.77;8.47;;;2.30;74.10;;;;;;5033227;28;20045;-71
2022/03/10 01:23:33;;;;;;;17.00;8.37;;;2.30;74.10;;;;;;5044406;28;20034;-71
2022/03/10 01:25:59;;;;;;;19.60;8.20;;;2.30;74.10;;;;;;5033741;28;20139;-71
2022/03/10 01:28:24;;;;;;;12.77;7.07;;;2.30;74.10;;;;;;5033270;28;20048;-71
2022/03/10 01:30:50;;;;;;;15.50;7.27;;;2.30;74.20;;;;;;5035012;28;20036;-71
2022/03/10 01:33:16;;;;;;;14.87;8.00;;;2.30;74.40;;;;;;5035847;28;20124;-70
2022/03/10 01:35:41;;;;;;;15.97;7.67;;;2.20;74.40;;;;;;5035145;28;20111;-71
2022/03/10 01:38:07;;;;;;;16.93;8.00;;;2.20;74.40;;;;;;5021663;28;20107;-70
2022/03/10 01:40:32;;;;;;;15.33;8.23;;;2.20;74.60;;;;;;5033075;28;20061;-71
2022/03/10 01:42:58;;;;;;;16.90;7.83;;;2.20;75.00;;;;;;5038853;28;20285;-70
2022/03/10 01:45:23;;;;;;;17.67;8.40;;;2.20;75.10;;;;;;5039746;28;20071;-71
2022/03/10 01:47:49;;;;;;;15.40;7.73;;;2.20;75.00;;;;;;5042507;28;20032;-71
2022/03/10 01:50:15;;;;;;;13.30;7.70;;;2.20;75.10;;;;;;5033477;28;20526;-71
2022/03/10 01:52:42;;;;;;;14.27;7.68;;;2.20;75.60;;;;;;5024570;28;20355;-70
2022/03/10 01:55:09;;;;;;;18.00;8.02;;;2.20;75.50;;;;;;5038273;28;20048;-70
2022/03/10 01:57:35;;;;;;;15.73;7.72;;;2.10;75.60;;;;;;5040520;28;20101;-70
2022/03/10 02:00:00;;;;;;;14.37;8.80;;;2.10;75.90;;;;;;5036451;28;20037;-71
2022/03/10 02:02:26;;;;;;;17.50;9.13;;;2.10;75.90;;;;;;5041493;28;20040;-70
2022/03/10 02:04:51;;;;;;;16.13;8.90;;;2.10;76.80;;;;;;5055845;28;20484;-71
2022/03/10 02:10:16;;;;;;;14.88;7.85;;;2.10;76.20;;;;;;5028942;28;20044;-71
2022/03/10 02:12:51;;;;;;;18.00;7.85;;;2.10;76.30;;;;;;5018592;28;20052;-71
2022/03/10 02:18:03;;;;;;;15.23;7.70;;;2.10;76.70;;;;;;5037384;28;20159;-71
2022/03/10 02:20:29;;;;;;;16.63;8.87;;;2.00;76.40;;;;;;5038886;28;20533;-71
2022/03/10 02:22:55;;;;;;;17.10;8.15;;;2.10;76.50;;;;;;5057440;28;20393;-71
2022/03/10 02:25:22;;;;;;;16.23;8.50;;;2.00;76.50;;;;;;5055593;28;20043;-71
2022/03/10 02:27:53;;;;;;;17.73;8.57;;;2.00;76.40;;;;;;5039068;28;20249;-71
2022/03/10 02:30:23;;;;;;;17.00;8.15;;;2.00;76.40;;;;;;5058656;28;20063;-71
2022/03/10 02:32:49;;;;;;;12.73;8.30;;;2.00;76.60;;;;;;5038273;28;20468;-70
2022/03/10 02:35:15;;;;;;;21.65;8.90;;;2.00;76.50;;;;;;5055728;28;20155;-71
2022/03/10 02:37:41;;;;;;;17.80;7.93;;;2.00;77.00;;;;;;5037359;28;20056;-70
2022/03/10 02:40:08;;;;;;;15.18;7.40;;;2.00;77.10;;;;;;5055421;28;20441;-70
2022/03/10 02:42:34;;;;;;;;;;;2.00;77.10;;;;;;5032461;28;20072;-71
2022/03/10 02:45:01;;;;;;;18.42;8.32;;;2.00;78.00;;;;;;5037080;28;19959;-70
2022/03/10 02:47:27;;;;;;;19.58;8.82;;;1.90;77.00;;;;;;5039245;28;20493;-70
2022/03/10 02:49:53;;;;;;;18.55;8.43;;;2.00;76.90;;;;;;5035379;28;20489;-71
2022/03/10 02:52:18;;;;;;;21.47;9.07;;;2.00;77.10;;;;;;5032772;28;20051;-71
2022/03/10 02:54:44;;;;;;;19.13;8.03;;;1.90;77.10;;;;;;5032008;28;20089;-71
2022/03/10 02:57:11;;;;;;;17.93;8.90;;;1.90;77.50;;;;;;5038211;28;20076;-71
2022/03/10 02:59:37;;;;;;;14.38;8.25;;;1.90;77.40;;;;;;5055431;28;20096;-70
2022/03/10 03:02:04;;;;;;;17.77;8.97;;;1.90;77.40;;;;;;5054491;28;20131;-71
2022/03/10 03:04:29;;;;;;;16.13;8.32;;;1.90;77.50;;;;;;5035702;28;20297;-71
2022/03/10 03:06:55;;;;;;;17.23;8.87;;;1.90;77.70;;;;;;5036178;28;20036;-70
2022/03/10 03:09:21;;;;;;;16.43;8.17;;;1.90;78.00;;;;;;5030382;28;20385;-70
2022/03/10 03:11:47;;;;;;;17.17;8.07;;;1.80;78.30;;;;;;5040857;28;20049;-71
2022/03/10 03:14:12;;;;;;;20.37;9.23;;;1.80;78.30;;;;;;5043244;28;20037;-70
2022/03/10 03:16:38;;;;;;;15.63;8.77;;;1.80;78.50;;;;;;5043762;28;20052;-70
2022/03/10 03:19:04;;;;;;;18.92;8.25;;;1.80;79.00;;;;;;5037382;28;20571;-70
2022/03/10 03:21:32;;;;;;;16.25;7.90;;;1.80;79.50;;;;;;5047272;28;20462;-71
2022/03/10 03:23:58;;;;;;;16.50;9.17;;;1.70;79.30;;;;;;5041435;28;20132;-70
2022/03/10 03:26:23;;;;;;;20.23;8.73;;;1.70;79.30;;;;;;5054733;28;20148;-70
2022/03/10 03:28:49;;;;;;;21.47;9.87;;;1.70;79.70;;;;;;5036734;28;20246;-70
2022/03/10 03:31:14;;;;;;;18.03;8.77;;;1.70;79.80;;;;;;5052181;28;20036;-70
2022/03/10 03:33:40;;;;;;;18.80;8.43;;;1.60;79.90;;;;;;5037147;28;20036;-70
2022/03/10 03:36:06;;;;;;;19.20;8.80;;;1.70;79.90;;;;;;5021215;28;20040;-70
2022/03/10 03:38:32;;;;;;;17.08;8.60;;;1.60;80.20;;;;;;5032070;28;20053;-71
2022/03/10 03:40:58;;;;;;;16.53;8.33;;;1.60;80.10;;;;;;5026718;28;20048;-70
2022/03/10 03:43:24;;;;;;;20.75;9.00;;;1.60;80.60;;;;;;5037055;28;20037;-71
2022/03/10 03:45:49;;;;;;;17.50;8.63;;;1.60;80.50;;;;;;5047635;28;20040;-70
2022/03/10 03:48:15;;;;;;;18.80;9.13;;;1.60;80.60;;;;;;5038000;28;20040;-71
2022/03/10 03:50:41;;;;;;;18.33;9.57;;;1.60;81.20;;;;;;5040164;28;20106;-70
2022/03/10 03:53:06;;;;;;;18.03;9.23;;;1.60;81.10;;;;;;5053508;28;20097;-71
2022/03/10 03:55:32;;;;;;;17.07;9.30;;;1.60;81.50;;;;;;5060485;28;20044;-71
2022/03/10 03:57:57;;;;;;;20.33;10.20;;;1.60;81.40;;;;;;5058819;28;20102;-71
2022/03/10 04:00:23;;;;;;;18.63;9.07;;;1.60;81.50;;;;;;5039874;28;20097;-70
2022/03/10 04:02:48;;;;;;;17.57;9.37;;;1.60;81.60;;;;;;5038258;28;20063;-71
2022/03/10 04:05:14;;;;;;;17.93;8.83;;;1.60;81.40;;;;;;5061375;28;20039;-70
2022/03/10 04:07:40;;;;;;;15.43;8.05;;;1.50;81.80;;;;;;5046271;28;20072;-70
2022/03/10 04:10:07;;;;;;;18.47;9.50;;;1.50;82.10;;;;;;5039015;28;20059;-70
2022/03/10 04:12:34;;;;;;;22.52;9.85;;;1.50;82.80;;;;;;5042972;28;20044;-70
2022/03/10 04:15:00;;;;;;;19.40;8.60;;;1.50;82.50;;;;;;5049951;28;20082;-70
2022/03/10 04:17:26;;;;;;;18.00;9.47;;;1.50;82.90;;;;;;5067255;28;20036;-70
2022/03/10 04:19:51;;;;;;;19.88;9.50;;;1.50;82.80;;;;;;5044950;28;20733;-70
2022/03/10 04:22:17;;;;;;;18.83;8.63;;;1.50;83.70;;;;;;5055390;28;20132;-70
2022/03/10 04:24:43;;;;;;;17.60;9.23;;;1.50;83.40;;;;;;5034364;28;20037;-70
2022/03/10 04:27:08;;;;;;;22.07;9.67;;;1.50;83.30;;;;;;5042926;28;20136;-70
2022/03/10 04:29:34;;;;;;;21.10;9.20;;;1.40;83.40;;;;;;5049073;28;20032;-70
2022/03/10 04:32:00;;;;;;;16.73;9.17;;;1.40;84.00;;;;;;5065120;28;20570;-70
2022/03/10 04:34:25;;;;;;;18.33;9.50;;;1.40;84.10;;;;;;5024962;28;20068;-70
2022/03/10 04:36:54;;;;;;;18.60;10.20;;;1.40;84.60;;;;;;5048642;28;20560;-70
2022/03/10 04:39:22;;;;;;;22.15;9.52;;;1.40;84.50;;;;;;5047444;28;20036;-70
2022/03/10 04:41:48;;;;;;;17.67;9.03;;;1.40;84.40;;;;;;5042801;28;20067;-70
2022/03/10 04:44:14;;;;;;;19.27;9.80;;;1.40;84.70;;;;;;5056522;28;20066;-69
2022/03/10 04:46:39;;;;;;;18.20;10.00;;;1.40;84.90;;;;;;5025261;28;20148;-70
2022/03/10 04:49:05;;;;;;;20.00;9.73;;;1.40;85.00;;;;;;5043098;28;20040;-68
2022/03/10 04:51:31;;;;;;;19.55;9.13;;;1.40;85.50;;;;;;5040537;28;20149;-70
2022/03/10 04:53:57;;;;;;;19.77;9.70;;;1.40;86.00;;;;;;5043029;28;20120;-68
2022/03/10 04:56:22;;;;;;;22.00;10.13;;;1.40;85.80;;;;;;5056150;28;20037;-68
2022/03/10 04:58:48;;;;;;;16.50;9.07;;;1.40;85.80;;;;;;5036617;28;20044;-68
2022/03/10 05:01:13;;;;;;;19.53;9.30;;;1.40;86.00;;;;;;5045340;28;20656;-68
2022/03/10 05:03:39;;;;;;;19.77;10.13;;;1.30;86.10;;;;;;5054033;28;20242;-68
2022/03/10 05:06:05;;;;;;;21.37;10.93;;;1.30;86.40;;;;;;5042048;28;20040;-68
2022/03/10 05:08:30;;;;;;;26.30;10.10;;;1.30;86.60;;;;;;5047389;28;20142;-70
2022/03/10 05:10:57;;;;;;;20.67;10.27;;;1.30;86.90;;;;;;5041831;28;20068;-68
2022/03/10 05:13:23;;;;;;;;;;;1.30;86.80;;;;;;5045307;28;20037;-68
2022/03/10 05:15:49;;;;;;;19.00;9.18;;;1.20;89.10;;;;;;5041963;28;20278;-69
2022/03/10 05:18:15;;;;;;;22.67;10.20;;;1.20;87.90;;;;;;5047816;28;20127;-69
2022/03/10 05:20:40;;;;;;;19.97;9.53;;;1.30;87.50;;;;;;5045928;28;20048;-69
2022/03/10 05:23:09;;;;;;;17.45;9.27;;;1.20;87.70;;;;;;5060090;28;20481;-68
2022/03/10 05:25:36;;;;;;;18.53;9.67;;;1.30;87.60;;;;;;5057454;28;20039;-69
2022/03/10 05:28:03;;;;;;;20.17;10.07;;;1.30;87.60;;;;;;5012883;28;1042997;-69
2022/03/10 05:30:28;;;;;;;17.48;9.88;;;1.20;87.80;;;;;;5061133;28;20033;-69
2022/03/10 05:32:54;;;;;;;19.13;9.70;;;1.20;87.90;;;;;;5036126;28;20032;-69
2022/03/10 05:35:20;;;;;;;21.10;9.33;;;1.20;88.20;;;;;;5067598;28;20120;-69
2022/03/10 05:37:48;;;;;;;18.48;9.38;;;1.20;88.10;;;;;;5061241;28;20033;-68
2022/03/10 05:40:21;;;;;;;24.30;10.18;;;1.30;88.50;;;;;;5039506;28;20056;-68
2022/03/10 05:42:47;;;;;;;20.85;9.85;;;1.30;88.70;;;;;;5043795;28;20044;-69
2022/03/10 05:45:14;;;;;;;20.08;10.07;;;1.30;88.70;;;;;;5049840;28;20063;-70
2022/03/10 05:47:41;;;;;;;21.70;10.05;;;1.30;88.80;;;;;;5048576;28;20405;-70
2022/03/10 05:50:08;;;;;;;;;;;1.30;89.00;;;;;;5049115;28;20481;-69
2022/03/10 05:52:34;;;;;;;19.52;10.18;;;1.30;91.10;;;;;;5031206;28;19916;-70
2022/03/10 05:54:59;;;;;;;24.47;9.93;;;1.30;89.80;;;;;;5044495;28;20546;-69
2022/03/10 05:57:28;;;;;;;19.33;10.10;;;1.30;90.00;;;;;;5042733;28;20098;-70
2022/03/10 05:59:54;;;;;;;24.20;10.88;;;1.30;89.20;;;;;;5043086;28;20116;-70
2022/03/10 06:02:20;;;;;;;22.50;10.50;;;1.30;89.00;;;;;;5043751;28;20037;-70
2022/03/10 06:04:45;;;;;;;22.33;11.03;;;1.30;89.20;;;;;;5065112;28;20098;-69
2022/03/10 06:07:11;;;;;;;19.53;8.83;;;1.30;89.60;;;;;;5068409;28;20032;-69
2022/03/10 06:09:37;;;;;;;23.87;9.93;;;1.30;90.30;;;;;;5064776;28;20054;-70
2022/03/10 06:12:03;;;;;;;16.90;9.13;;;1.30;90.30;;;;;;5063816;28;20282;-69
2022/03/10 06:14:29;;;;;;;18.75;9.68;;;1.30;90.50;;;;;;5048594;28;20045;-70
2022/03/10 06:16:54;;;;;;;21.57;10.77;;;1.30;90.00;;;;;;5060747;28;20438;-69
2022/03/10 06:19:21;;;;;;;19.90;9.73;;;1.30;90.00;;;;;;5088784;22;20040;-71
2022/03/10 06:21:47;;;;;;;20.13;10.68;;;1.30;89.90;;;;;;5065107;28;20040;-71
2022/03/10 06:24:12;;;;;;;21.52;10.75;;;1.30;90.30;;;;;;5079793;28;20084;-72
2022/03/10 06:26:38;;;;;;;22.27;10.47;;;1.40;90.20;;;;;;5034347;28;20500;-71
2022/03/10 06:29:05;;;;;;;19.17;10.40;;;1.30;90.30;;;;;;5061025;28;20040;-71
2022/03/10 06:31:31;;;;;;;;;;;1.30;90.30;;;;;;5032276;28;20393;-71
2022/03/10 06:34:00;;;;;;;21.92;10.05;;;1.30;91.20;;;;;;5039671;28;20297;-71
2022/03/10 06:36:26;;;;;;;25.55;11.38;;;1.30;90.40;;;;;;5041472;28;20408;-71
2022/03/10 06:38:53;;;;;;;18.50;9.93;;;1.30;90.20;;;;;;5022448;28;20049;-71
2022/03/10 06:41:19;;;;;;;17.40;9.95;;;1.30;90.40;;;;;;5042521;28;20134;-71
2022/03/10 06:43:44;;;;;;;16.20;9.23;;;1.40;90.40;;;;;;5051489;28;20089;-71
2022/03/10 06:46:10;;;;;;;21.80;10.37;;;1.40;90.50;;;;;;5051958;28;20035;-71
2022/03/10 06:48:35;;;;;;;20.60;9.80;;;1.40;90.30;;;;;;5033754;28;20409;-71
2022/03/10 06:51:01;;;;;;;23.50;10.73;;;1.50;90.20;;;;;;5033787;28;20040;-71
2022/03/10 06:53:27;;;;;;;25.97;11.73;;;1.50;90.30;;;;;;5055465;28;20127;-71
2022/03/10 06:55:53;;;;;;;24.13;11.93;;;1.50;90.30;;;;;;5029895;28;20311;-71
2022/03/10 06:58:19;;;;;;;23.23;10.07;;;1.50;90.10;;;;;;5029532;28;20063;-71
2022/03/10 07:00:44;;;;;;;22.07;11.43;;;1.60;90.10;;;;;;5037069;28;20036;-71
2022/03/10 07:03:10;;;;;;;22.63;10.40;;;1.60;89.90;;;;;;5034147;28;20125;-71
2022/03/10 07:05:38;;;;;;;23.87;10.37;;;1.70;90.00;;;;;;5040836;28;20122;-71
2022/03/10 07:08:04;;;;;;;18.35;9.65;;;1.70;89.70;;;;;;5058492;28;20049;-71
2022/03/10 07:10:29;;;;;;;20.37;11.03;;;1.70;90.00;;;;;;5040071;28;20392;-71
2022/03/10 07:12:55;;;;;;;26.63;11.17;;;1.80;89.60;;;;;;5056331;28;20718;-71
2022/03/10 07:15:21;;;;;;;21.33;10.17;;;1.80;89.40;;;;;;5062158;28;20041;-71
2022/03/10 07:17:46;;;;;;;21.27;10.37;;;1.80;89.50;;;;;;5057809;28;20493;-75
2022/03/10 07:20:14;;;;;;;21.33;10.57;;;1.90;89.00;;;;;;5044267;28;20063;-73
2022/03/10 07:22:39;;;;;;;25.60;10.55;;;2.00;89.40;;;;;;5041195;28;20048;-74
2022/03/10 07:25:07;;;;;;;20.03;10.17;;;2.00;88.50;;;;;;5050738;28;20040;-77
2022/03/10 07:27:32;;;;;;;33.78;10.88;;;2.10;88.60;;;;;;5004553;28;20055;-76
2022/03/10 07:29:58;;;;;;;23.73;10.13;;;2.10;89.10;;;;;;5024372;28;20919;-74
2022/03/10 07:32:26;;;;;;;22.27;11.20;;;2.20;88.60;;;;;;5027032;28;20123;-75
2022/03/10 07:34:52;;;;;;;24.52;10.85;;;2.30;88.10;;;;;;5045676;28;20267;-74
2022/03/10 07:37:18;;;;;;;22.73;11.13;;;2.30;88.00;;;;;;5022593;28;20531;-74
2022/03/10 07:39:43;;;;;;;21.17;9.40;;;2.40;88.10;;;;;;5023859;28;20306;-75
2022/03/10 07:42:09;;;;;;;23.47;10.80;;;2.50;88.10;;;;;;5029815;28;20041;-71
2022/03/10 07:44:35;;;;;;;18.83;9.80;;;2.50;87.50;;;;;;5047014;28;20048;-73
2022/03/10 07:47:00;;;;;;;24.17;10.20;;;2.60;86.40;;;;;;5032827;28;20452;-76
2022/03/10 07:49:26;;;;;;;21.07;9.83;;;2.70;86.30;;;;;;5025023;28;20029;-73
2022/03/10 07:51:52;;;;;;;20.23;10.20;;;2.80;85.90;;;;;;5039769;28;20228;-75
2022/03/10 07:54:19;;;;;;;21.07;10.00;;;2.90;85.20;;;;;;5044305;28;20036;-75
2022/03/10 07:56:45;;;;;;;21.23;10.80;;;3.00;85.00;;;;;;5041758;28;20310;-74
2022/03/10 07:59:11;;;;;;;19.90;9.50;;;3.10;84.70;;;;;;5057430;28;20571;-72
2022/03/10 08:01:36;;;;;;;22.27;10.17;;;3.20;84.20;;;;;;5057329;28;20047;-72
2022/03/10 08:04:02;;;;;;;24.37;10.27;;;3.30;83.90;;;;;;5055957;28;20186;-71
2022/03/10 08:06:28;;;;;;;21.77;10.77;;;3.40;83.60;;;;;;5039255;28;20056;-72
2022/03/10 08:08:53;;;;;;;19.87;10.30;;;3.40;83.00;;;;;;5032979;28;20425;-71
2022/03/10 08:11:19;;;;;;;22.47;10.87;;;3.60;82.40;;;;;;5031890;28;20074;-72
2022/03/10 08:13:45;;;;;;;24.83;10.77;;;3.70;82.10;;;;;;5030351;28;20037;-72
2022/03/10 08:16:11;;;;;;;20.50;10.27;;;3.80;81.90;;;;;;5042464;28;20116;-72
2022/03/10 08:18:36;;;;;;;22.07;10.97;;;3.90;81.60;;;;;;5037338;28;20409;-72
2022/03/10 08:21:02;;;;;;;23.23;10.90;;;4.00;80.90;;;;;;5039515;28;20639;-72
2022/03/10 08:23:29;;;;;;;22.38;10.95;;;4.10;79.80;;;;;;5067835;28;20033;-72
2022/03/10 08:25:55;;;;;;;24.33;11.70;;;4.20;79.40;;;;;;5045876;28;20048;-72
2022/03/10 08:28:21;;;;;;;20.63;10.93;;;4.30;78.70;;;;;;5045343;28;20039;-72
2022/03/10 08:30:47;;;;;;;20.52;10.57;;;4.40;78.90;;;;;;5038386;28;20032;-72
2022/03/10 08:33:13;;;;;;;23.13;9.67;;;4.50;78.40;;;;;;5044383;28;20489;-72
2022/03/10 08:35:38;;;;;;;25.30;11.47;;;4.60;78.50;;;;;;5035588;28;20120;-72
2022/03/10 08:38:04;;;;;;;26.20;11.50;;;4.70;77.80;;;;;;5040796;28;20392;-72
2022/03/10 08:40:30;;;;;;;17.08;10.15;;;4.90;77.10;;;;;;5037628;28;20489;-72
2022/03/10 08:42:55;;;;;;;20.20;9.53;;;5.00;76.60;;;;;;5065757;28;20238;-72
2022/03/10 08:45:25;;;;;;;19.43;10.93;;;5.10;76.40;;;;;;5039993;28;20052;-72
2022/03/10 08:47:53;;;;;;;21.90;10.70;;;5.20;76.00;;;;;;5025229;28;20128;-72
2022/03/10 08:50:19;;;;;;;23.00;10.15;;;5.30;75.40;;;;;;5030185;28;20102;-72
2022/03/10 08:52:45;;;;;;;22.80;10.40;;;5.40;74.90;;;;;;5035797;28;20068;-72
2022/03/10 08:55:11;;;;;;;21.23;10.73;;;5.50;74.20;;;;;;5040053;28;20068;-72
2022/03/10 08:57:37;;;;;;;19.77;9.70;;;5.70;73.90;;;;;;5041062;28;20052;-72
2022/03/10 09:00:08;;;;;;;22.83;10.53;;;5.80;73.60;;;;;;5040010;28;20066;-72
2022/03/10 09:02:33;;;;;;;20.75;10.07;;;5.90;73.10;;;;;;5039163;28;21171;-72
2022/03/10 09:04:59;;;;;;;20.20;10.03;;;6.10;72.60;;;;;;5053374;28;20048;-72
2022/03/10 09:07:25;;;;;;;19.57;10.40;;;6.10;72.40;;;;;;5058272;28;20037;-72
2022/03/10 09:09:51;;;;;;;17.97;9.87;;;6.30;71.30;;;;;;5058183;28;20500;-72
2022/03/10 09:12:16;;;;;;;20.10;10.83;;;6.40;70.50;;;;;;5029049;28;20346;-72
2022/03/10 09:14:42;;;;;;;23.77;10.10;;;6.50;71.10;;;;;;5053690;28;20036;-72
2022/03/10 09:17:07;;;;;;;23.27;10.83;;;6.70;70.70;;;;;;5053082;28;20380;-72
2022/03/10 09:19:33;;;;;;;19.53;10.17;;;6.80;70.60;;;;;;5044341;28;20038;-72
2022/03/10 09:21:59;;;;;;;19.23;10.93;;;6.90;70.20;;;;;;5031938;28;20061;-72
2022/03/10 09:24:25;;;;;;;23.42;11.70;;;7.10;69.20;;;;;;5033410;28;20043;-72
2022/03/10 09:26:50;;;;;;;25.52;11.57;;;7.20;68.20;;;;;;5042588;28;20227;-72
2022/03/10 09:29:16;;;;;;;26.67;10.53;;;7.40;68.00;;;;;;5055757;28;20029;-71
2022/03/10 09:31:42;;;;;;;22.23;10.53;;;7.50;67.70;;;;;;5039058;28;20090;-73
2022/03/10 09:34:08;;;;;;;21.90;9.80;;;7.70;67.30;;;;;;5033034;28;20102;-72
2022/03/10 09:36:33;;;;;;;24.20;11.17;;;7.90;66.50;;;;;;5042368;28;20935;-72
2022/03/10 09:38:59;;;;;;;21.47;11.03;;;8.00;65.90;;;;;;5031913;28;20045;-72
2022/03/10 09:41:25;;;;;;;22.73;11.00;;;8.20;66.20;;;;;;5022311;28;20321;-72
2022/03/10 09:43:51;;;;;;;26.20;11.88;;;8.30;64.50;;;;;;5037122;28;20060;-72
2022/03/10 09:46:16;;;;;;;19.27;10.43;;;8.50;64.10;;;;;;5038281;28;20045;-72
2022/03/10 09:48:42;;;;;;;20.47;11.20;;;8.60;64.00;;;;;;5033749;28;20294;-72
2022/03/10 09:51:09;;;;;;;23.60;11.77;;;8.70;63.70;;;;;;5051480;28;20031;-72
2022/03/10 09:53:35;;;;;;;21.88;11.45;;;8.90;64.10;;;;;;5051623;28;20303;-72
2022/03/10 09:56:05;;;;;;;23.50;11.50;;;9.00;63.90;;;;;;5025748;28;20041;-72
2022/03/10 09:58:33;;;;;;;23.73;11.25;;;9.20;63.40;;;;;;5035792;28;20052;-72
2022/03/10 10:01:06;;;;;;;20.95;11.80;;;9.40;62.50;;;;;;5031713;28;20049;-71
2022/03/10 10:07:35;;;;;;;24.98;11.73;;;9.80;60.70;;;;;;4991026;28;20064;-72
2022/03/10 10:10:01;;;;;;;21.87;11.53;;;10.00;60.70;;;;;;4950281;28;20065;-72
2022/03/10 10:12:29;;;;;;;27.58;13.13;;;10.20;60.20;;;;;;5023660;28;20339;-72
2022/03/10 10:14:56;;;;;;;23.52;11.50;;;10.30;59.90;;;;;;5036235;28;20043;-72
2022/03/10 10:17:30;;;;;;;22.17;12.05;;;10.50;59.60;;;;;;5022042;28;20059;-72
2022/03/10 10:19:57;;;;;;;21.63;11.98;;;10.60;58.30;;;;;;5034813;28;20071;-72
2022/03/10 10:22:24;;;;;;;24.30;12.45;;;10.70;58.90;;;;;;5035941;28;20036;-72
2022/03/10 10:24:55;;;;;;;23.38;12.20;;;10.70;57.90;;;;;;5038524;28;20040;-72
2022/03/10 10:27:23;;;;;;;25.42;12.95;;;10.80;57.70;;;;;;5031098;28;20082;-72
2022/03/10 10:29:51;;;;;;;22.13;12.27;;;10.90;57.70;;;;;;5028417;28;20059;-72
2022/03/10 10:32:24;;;;;;;24.40;12.02;;;11.00;57.90;;;;;;5054671;28;20508;-72
2022/03/10 10:35:06;;;;;;;24.85;12.63;;;11.20;56.70;;;;;;5025612;28;20361;-73
2022/03/10 10:37:33;;;;;;;26.48;12.75;;;11.40;55.60;;;;;;5031742;28;20151;-72
2022/03/10 10:39:59;;;;;;;23.77;11.93;;;11.60;55.60;;;;;;5045947;28;20039;-72
2022/03/10 10:42:30;;;;;;;25.92;12.75;;;11.70;54.70;;;;;;5030986;28;20087;-72
2022/03/10 10:44:58;;;;;;;22.88;11.10;;;11.80;54.20;;;;;;5053363;28;20115;-72
2022/03/10 10:47:26;;;;;;;20.90;10.65;;;11.80;53.90;;;;;;5044174;28;20072;-72
2022/03/10 10:49:57;;;;;;;23.63;12.63;;;11.80;53.90;;;;;;5054920;28;20072;-73
2022/03/10 10:52:24;;;;;;;23.05;12.30;;;11.80;53.00;;;;;;5035162;28;20075;-72
2022/03/10 10:55:06;;;;;;;23.02;12.88;;;11.90;53.70;;;;;;5017157;28;20028;-72
2022/03/10 10:57:34;;;;;;;24.35;12.43;;;12.00;53.30;;;;;;5033330;28;20559;-72
2022/03/10 11:00:12;;;;;;;24.67;12.60;;;12.10;53.00;;;;;;5046191;28;20041;-72
2022/03/10 11:02:42;;;;;;;27.30;12.65;;;12.30;53.00;;;;;;5035875;28;20083;-72
2022/03/10 11:05:11;;;;;;;21.05;11.82;;;12.40;53.10;;;;;;5031917;28;20032;-73
2022/03/10 11:07:41;;;;;;;25.60;13.55;;;12.60;52.80;;;;;;5048656;28;20572;-72
2022/03/10 11:10:09;;;;;;;23.10;12.82;;;12.80;52.10;;;;;;5028876;28;20059;-73
2022/03/10 11:12:39;;;;;;;23.15;12.80;;;13.00;52.60;;;;;;5032094;28;20050;-72
2022/03/10 11:15:53;;;;;;;23.88;12.45;;;13.10;52.00;;;;;;5033666;28;20059;-73
2022/03/10 11:31:05;;;;;;;;;;;;;;;;;;;;;
2022/03/10 11:38:16;;;;;;;25.65;12.68;;;13.90;48.00;;;;;;4842017;29;20134;-72
2022/03/10 11:41:36;;;;;;;28.98;14.15;;;13.80;47.20;;;;;;4861934;29;20049;-68
2022/03/10 11:52:24;;;;;;;28.48;15.13;;;13.60;47.60;;;;;;5160439;27;20185;-72
2022/03/10 11:55:06;;;;;;;26.10;13.07;;;13.60;47.80;;;;;;5042563;28;20139;-69
2022/03/10 11:58:05;;;;;;;28.02;14.07;;;13.50;47.40;;;;;;5039860;28;20037;-68
2022/03/10 12:00:49;;;;;;;24.98;13.48;;;13.60;47.60;;;;;;4964660;28;20144;-69
2022/03/10 12:03:24;;;;;;;26.88;13.90;;;13.60;47.70;;;;;;5056708;28;20068;-71
2022/03/10 12:05:55;;;;;;;29.85;14.20;;;13.70;47.60;;;;;;4940105;28;20824;-68
2022/03/10 12:08:40;;;;;;;27.23;14.20;;;13.70;46.60;;;;;;5039323;28;20044;-69
2022/03/10 12:11:13;;;;;;;33.08;14.63;;;13.80;47.40;;;;;;5050597;28;20044;-69
2022/03/10 12:13:44;;;;;;;29.63;14.10;;;13.90;47.10;;;;;;5053666;28;20032;-69
2022/03/10 12:16:23;;;;;;;24.98;13.60;;;14.00;46.90;;;;;;5046562;28;20420;-70
2022/03/10 12:18:49;;;;;;;22.77;12.95;;;14.00;46.00;;;;;;5054258;28;20433;-71
2022/03/10 12:21:30;;;;;;;29.35;13.77;;;14.10;46.50;;;;;;4993019;28;20452;-68
2022/03/10 12:24:21;;;;;;;;;;;;;;;;;;;;;
2022/03/10 12:26:47;;;;;;;28.13;14.20;;;14.40;46.40;;;;;;5032615;28;20123;-70
2022/03/10 12:29:14;;;;;;;23.85;13.68;;;14.60;46.50;;;;;;5035192;28;20167;-73
2022/03/10 12:31:42;;;;;;;26.25;14.13;;;14.80;45.70;;;;;;5042218;28;20110;-70
2022/03/10 12:34:12;;;;;;;25.40;13.57;;;15.00;45.50;;;;;;5056335;28;20389;-70
2022/03/10 12:36:43;;;;;;;27.60;14.05;;;15.20;44.80;;;;;;5044589;28;20354;-70
2022/03/10 12:39:17;;;;;;;25.85;13.10;;;15.40;44.70;;;;;;4914270;28;20254;-68
2022/03/10 12:41:50;;;;;;;27.00;14.63;;;15.60;44.60;;;;;;5050605;28;20362;-71
2022/03/10 12:44:19;;;;;;;25.92;13.82;;;15.70;43.90;;;;;;5053903;28;20498;-70
2022/03/10 12:46:48;;;;;;;27.08;13.90;;;15.80;43.10;;;;;;4983021;28;20423;-68
2022/03/10 12:50:02;;;;;;;;;;;;;;;;;;;;;
2022/03/10 12:52:29;;;;;;;23.23;12.98;;;16.00;43.90;;;;;;4944532;28;20060;-69
2022/03/10 12:54:56;;;;;;;27.05;13.57;;;16.20;44.30;;;;;;5090609;28;20036;-69
2022/03/10 12:57:25;;;;;;;26.70;14.27;;;16.40;43.80;;;;;;5070381;28;20051;-69
2022/03/10 12:59:51;;;;;;;23.73;12.32;;;16.60;43.80;;;;;;5081800;28;20217;-68
2022/03/10 13:02:24;;;;;;;23.07;13.47;;;16.70;43.10;;;;;;5075826;28;20044;-68
2022/03/10 13:04:55;;;;;;;26.85;13.75;;;16.80;42.70;;;;;;5060444;28;20842;-68
2022/03/10 13:07:23;;;;;;;28.00;13.80;;;16.90;42.20;;;;;;5046292;28;20465;-69
2022/03/10 13:10:00;;;;;;;25.02;14.25;;;16.90;41.90;;;;;;5071306;28;20520;-69
2022/03/10 13:12:47;;;;;;;22.85;13.43;;;17.00;42.20;;;;;;5069599;28;20131;-68
2022/03/10 13:15:21;;;;;;;28.02;13.05;;;17.10;42.30;;;;;;5081357;28;20051;-69
2022/03/10 13:17:49;;;;;;;26.73;13.50;;;17.20;42.10;;;;;;5077920;28;20116;-68
2022/03/10 13:20:26;;;;;;;24.10;12.52;;;17.30;42.00;;;;;;5059725;28;20193;-69
2022/03/10 13:22:59;;;;;;;23.08;12.07;;;17.40;41.60;;;;;;5056362;28;20035;-70
2022/03/10 13:25:26;;;;;;;23.30;12.98;;;17.40;41.10;;;;;;5071425;28;20036;-69
2022/03/10 13:27:59;;;;;;;25.33;12.13;;;17.50;41.00;;;;;;5055378;28;20040;-69
2022/03/10 13:30:26;;;;;;;25.92;12.50;;;17.60;41.40;;;;;;5052888;28;20538;-69